MAD weather

Adolfo Suárez Madrid–Barajas Airport
Madrid, Madrid, Spain

Public forecast

Using degrees Celsius for public forecast. Weather courtesy of forecast.io.

METAR (pilot weather report)

Retrieved 2018/04/24 20:30 UTC (0 seconds ago):

LEMD 242030Z 36001KT CAVOK 20/09 Q1017 NOSIG

TAF (pilot weather forecast)

Retrieved 2018/04/24 18:27 UTC (2 hours ago):

TAF LEMD 241700Z 2418/2524 03007KT CAVOK TX27/2515Z TN10/2506Z PROB30 TEMPO 2418/2420 12008KT PROB30 TEMPO 2514/2518 FEW045TCU